Time;durP1;ratioP1;P1;durP2;ratioP2;P2;SDS_P1;SDS_P2;PMS_P1;PMS_P2;Temp;Humidity;BMP_temperature;BMP_pressure;BME280_temperature;BME280_humidity;BME280_pressure;Samples;Min_cycle;Max_cycle;Signal;HPM_P1;HPM_P2
2021/05/26 00:00:08;;;;;;;5.37;4.40;;;;;;;;;;5055462;28;20198;-81
2021/05/26 00:02:33;;;;;;;6.07;4.90;;;;;;;;;;5056006;28;20168;-81
2021/05/26 00:04:59;;;;;;;7.20;4.80;;;;;;;;;;5055763;28;20178;-81
2021/05/26 00:07:24;;;;;;;5.43;4.40;;;;;;;;;;5055470;28;20167;-82
2021/05/26 00:09:49;;;;;;;5.37;4.63;;;;;;;;;;5055795;28;20168;-81
2021/05/26 00:12:15;;;;;;;6.50;4.40;;;;;;;;;;5055623;28;20172;-81
2021/05/26 00:14:40;;;;;;;7.20;4.60;;;;;;;;;;5054167;28;20178;-81
2021/05/26 00:17:05;;;;;;;7.43;4.63;;;;;;;;;;5055478;28;20160;-81
2021/05/26 00:19:31;;;;;;;5.47;4.17;;;;;;;;;;5055631;28;20635;-81
2021/05/26 00:21:56;;;;;;;6.67;4.73;;;;;;;;;;5055408;28;20176;-81
2021/05/26 00:24:22;;;;;;;5.23;4.50;;;;;;;;;;5055744;28;20226;-82
2021/05/26 00:26:47;;;;;;;5.33;4.50;;;;;;;;;;5055436;28;20168;-82
2021/05/26 00:29:13;;;;;;;6.43;4.40;;;;;;;;;;5055553;28;20267;-82
2021/05/26 00:31:38;;;;;;;6.13;4.57;;;;;;;;;;5054893;28;20312;-82
2021/05/26 00:34:03;;;;;;;4.90;4.20;;;;;;;;;;5054367;28;20176;-81
2021/05/26 00:36:29;;;;;;;6.37;4.77;;;;;;;;;;5054786;28;20620;-82
2021/05/26 00:38:55;;;;;;;6.87;4.43;;;;;;;;;;5054605;28;20200;-82
2021/05/26 00:41:20;;;;;;;5.07;4.57;;;;;;;;;;5054738;28;20174;-82
2021/05/26 00:43:45;;;;;;;6.10;4.73;;;;;;;;;;5055234;28;20178;-82
2021/05/26 00:46:11;;;;;;;6.43;4.77;;;;;;;;;;5055359;28;20531;-82
2021/05/26 00:48:36;;;;;;;5.20;4.70;;;;;;;;;;5055139;28;20576;-81
2021/05/26 00:51:02;;;;;;;6.10;4.70;;;;;;;;;;5054561;28;20211;-81
2021/05/26 00:53:30;;;;;;;5.67;4.20;;;;;;;;;;5055034;28;20163;-81
2021/05/26 00:55:55;;;;;;;6.40;5.37;;;;;;;;;;5054420;28;20189;-81
2021/05/26 00:58:21;;;;;;;5.57;4.70;;;;;;;;;;5054624;28;20191;-81
2021/05/26 01:00:46;;;;;;;8.27;4.83;;;;;;;;;;5055136;28;20195;-81
2021/05/26 01:03:12;;;;;;;8.20;4.73;;;;;;;;;;5054688;28;20170;-81
2021/05/26 01:05:38;;;;;;;7.43;4.87;;;;;;;;;;5054320;28;20251;-81
2021/05/26 01:08:03;;;;;;;7.07;4.37;;;;;;;;;;5054802;28;20166;-81
2021/05/26 01:10:30;;;;;;;4.50;4.10;;;;;;;;;;5054196;28;20662;-81
2021/05/26 01:12:55;;;;;;;4.87;4.30;;;;;;;;;;5054669;28;20201;-81
2021/05/26 01:15:21;;;;;;;5.53;4.83;;;;;;;;;;5054120;28;20199;-81
2021/05/26 01:17:47;;;;;;;5.83;4.67;;;;;;;;;;5054025;28;20175;-81
2021/05/26 01:20:19;;;;;;;6.03;4.40;;;;;;;;;;5054379;28;20187;-81
2021/05/26 01:22:44;;;;;;;7.70;4.60;;;;;;;;;;5054714;28;20182;-81
2021/05/26 01:25:09;;;;;;;4.90;4.37;;;;;;;;;;5054040;28;20612;-81
2021/05/26 01:27:35;;;;;;;5.60;4.30;;;;;;;;;;5052934;28;20534;-81
2021/05/26 01:30:00;;;;;;;6.43;4.07;;;;;;;;;;5054346;28;20191;-80
2021/05/26 01:32:27;;;;;;;5.27;4.40;;;;;;;;;;5054096;28;20222;-80
2021/05/26 01:34:52;;;;;;;6.27;4.53;;;;;;;;;;5054310;28;20172;-81
2021/05/26 01:37:17;;;;;;;6.73;4.80;;;;;;;;;;5054343;28;20221;-81
2021/05/26 01:39:46;;;;;;;4.77;4.20;;;;;;;;;;5054323;28;20306;-80
2021/05/26 01:42:26;;;;;;;6.80;4.40;;;;;;;;;;5054305;28;20179;-80
2021/05/26 01:44:51;;;;;;;6.13;4.70;;;;;;;;;;5054402;28;20246;-80
2021/05/26 01:47:16;;;;;;;6.13;5.03;;;;;;;;;;5054182;28;20266;-81
2021/05/26 01:49:42;;;;;;;5.20;4.40;;;;;;;;;;5054262;28;20580;-81
2021/05/26 01:52:07;;;;;;;7.67;4.67;;;;;;;;;;5053520;28;20646;-81
2021/05/26 01:54:33;;;;;;;8.53;4.63;;;;;;;;;;5053776;28;20666;-81
2021/05/26 01:56:58;;;;;;;6.27;5.17;;;;;;;;;;5053539;28;20172;-81
2021/05/26 01:59:24;;;;;;;5.53;4.60;;;;;;;;;;5053551;28;20198;-81
2021/05/26 02:01:50;;;;;;;4.70;4.20;;;;;;;;;;5053431;28;20168;-80
2021/05/26 02:04:15;;;;;;;6.17;4.50;;;;;;;;;;5053324;28;20218;-80
2021/05/26 02:06:45;;;;;;;4.90;4.37;;;;;;;;;;5053601;28;20166;-80
2021/05/26 02:09:10;;;;;;;5.30;4.27;;;;;;;;;;5053368;28;20182;-80
2021/05/26 02:14:19;;;;;;;7.33;4.70;;;;;;;;;;5053433;28;20166;-81
2021/05/26 02:16:45;;;;;;;5.83;4.60;;;;;;;;;;5053780;28;20537;-81
2021/05/26 02:19:10;;;;;;;7.33;4.67;;;;;;;;;;5053560;28;20231;-81
2021/05/26 02:21:35;;;;;;;5.10;4.40;;;;;;;;;;5053849;28;20560;-80
2021/05/26 02:24:01;;;;;;;6.27;5.03;;;;;;;;;;5053271;28;20257;-80
2021/05/26 02:26:26;;;;;;;6.47;4.63;;;;;;;;;;5053714;28;20267;-80
2021/05/26 02:28:51;;;;;;;6.23;4.50;;;;;;;;;;5053058;28;20180;-80
2021/05/26 02:31:17;;;;;;;6.97;4.80;;;;;;;;;;5053371;28;20257;-80
2021/05/26 02:33:42;;;;;;;6.37;4.70;;;;;;;;;;5053510;28;20200;-81
2021/05/26 02:36:08;;;;;;;5.90;4.50;;;;;;;;;;5053729;28;20171;-80
2021/05/26 02:38:33;;;;;;;5.13;4.63;;;;;;;;;;5053330;28;20192;-80
2021/05/26 02:40:59;;;;;;;4.77;4.27;;;;;;;;;;5053357;28;20183;-80
2021/05/26 02:43:24;;;;;;;6.03;4.50;;;;;;;;;;5053678;28;20175;-80
2021/05/26 02:45:49;;;;;;;5.13;4.60;;;;;;;;;;5053375;28;20177;-80
2021/05/26 02:48:15;;;;;;;7.03;4.43;;;;;;;;;;5053215;28;20266;-81
2021/05/26 02:50:40;;;;;;;4.93;4.10;;;;;;;;;;5053557;28;20176;-81
2021/05/26 02:53:05;;;;;;;5.53;4.57;;;;;;;;;;5054070;28;20168;-80
2021/05/26 02:55:31;;;;;;;6.80;4.80;;;;;;;;;;5053264;28;20164;-80
2021/05/26 02:57:56;;;;;;;6.63;4.43;;;;;;;;;;5056802;28;20168;-80
2021/05/26 03:00:22;;;;;;;5.60;4.67;;;;;;;;;;5057171;28;20198;-80
2021/05/26 03:02:48;;;;;;;6.20;5.00;;;;;;;;;;5056899;28;20213;-80
2021/05/26 03:05:14;;;;;;;5.83;4.73;;;;;;;;;;5057181;28;20233;-81
2021/05/26 03:07:39;;;;;;;6.20;4.83;;;;;;;;;;5056840;28;20183;-81
2021/05/26 03:10:05;;;;;;;4.67;4.20;;;;;;;;;;5056914;28;20203;-81
2021/05/26 03:12:30;;;;;;;5.63;4.53;;;;;;;;;;5056865;28;20262;-81
2021/05/26 03:14:56;;;;;;;5.83;4.67;;;;;;;;;;5056674;28;20224;-81
2021/05/26 03:17:23;;;;;;;5.10;4.60;;;;;;;;;;5056400;28;20182;-81
2021/05/26 03:19:48;;;;;;;6.60;4.40;;;;;;;;;;5056484;28;20667;-81
2021/05/26 03:22:14;;;;;;;5.40;4.83;;;;;;;;;;5056249;28;20176;-81
2021/05/26 03:24:39;;;;;;;7.37;4.80;;;;;;;;;;5055210;28;20531;-80
2021/05/26 03:27:05;;;;;;;6.63;4.70;;;;;;;;;;5056454;28;20167;-81
2021/05/26 03:29:30;;;;;;;6.33;4.30;;;;;;;;;;5056955;28;20182;-81
2021/05/26 03:31:55;;;;;;;7.80;4.67;;;;;;;;;;5056539;28;20293;-81
2021/05/26 03:34:21;;;;;;;4.97;4.20;;;;;;;;;;5056286;28;20225;-81
2021/05/26 03:36:47;;;;;;;5.93;4.40;;;;;;;;;;5056474;28;20190;-81
2021/05/26 03:39:12;;;;;;;6.50;4.30;;;;;;;;;;5056159;28;20286;-81
2021/05/26 03:41:41;;;;;;;4.53;4.10;;;;;;;;;;5056188;28;20218;-82
2021/05/26 03:44:07;;;;;;;8.03;4.13;;;;;;;;;;5056072;28;20171;-82
2021/05/26 03:46:33;;;;;;;5.63;3.63;;;;;;;;;;5056122;28;20191;-82
2021/05/26 03:48:58;;;;;;;4.57;3.63;;;;;;;;;;5056173;28;20628;-82
2021/05/26 03:51:23;;;;;;;3.90;3.50;;;;;;;;;;5056060;28;20172;-82
2021/05/26 03:53:49;;;;;;;6.83;3.93;;;;;;;;;;5056192;28;20175;-82
2021/05/26 03:56:14;;;;;;;8.27;4.13;;;;;;;;;;5055561;28;20183;-82
2021/05/26 03:58:39;;;;;;;5.10;4.10;;;;;;;;;;5055798;28;20206;-82
2021/05/26 04:01:05;;;;;;;4.47;3.90;;;;;;;;;;5055502;28;20589;-82
2021/05/26 04:03:30;;;;;;;4.87;3.60;;;;;;;;;;5055770;28;20196;-82
2021/05/26 04:05:55;;;;;;;5.50;3.60;;;;;;;;;;5056332;28;20163;-82
2021/05/26 04:08:21;;;;;;;3.40;3.10;;;;;;;;;;5054526;28;20663;-82
2021/05/26 04:10:47;;;;;;;3.87;3.50;;;;;;;;;;5055382;28;20200;-83
2021/05/26 04:13:12;;;;;;;4.10;3.67;;;;;;;;;;5055838;28;20289;-83
2021/05/26 04:15:38;;;;;;;4.33;3.47;;;;;;;;;;5055262;28;20199;-83
2021/05/26 04:18:07;;;;;;;4.10;3.70;;;;;;;;;;5055168;28;20176;-83
2021/05/26 04:20:33;;;;;;;5.60;3.47;;;;;;;;;;5056021;28;20616;-84
2021/05/26 04:22:59;;;;;;;4.57;3.40;;;;;;;;;;5055418;28;20179;-84
2021/05/26 04:25:24;;;;;;;3.83;2.97;;;;;;;;;;5055409;28;20302;-84
2021/05/26 04:27:49;;;;;;;3.47;3.17;;;;;;;;;;5055624;28;20174;-84
2021/05/26 04:30:15;;;;;;;3.72;3.42;;;;;;;;;;5054972;28;20231;-84
2021/05/26 04:32:40;;;;;;;3.75;3.20;;;;;;;;;;5055373;28;20270;-84
2021/05/26 04:35:06;;;;;;;3.50;3.20;;;;;;;;;;5055252;28;20164;-84
2021/05/26 04:37:31;;;;;;;3.08;2.88;;;;;;;;;;5055050;28;20202;-84
2021/05/26 04:39:56;;;;;;;3.58;3.00;;;;;;;;;;5054847;28;20672;-84
2021/05/26 04:42:22;;;;;;;3.35;3.15;;;;;;;;;;5055483;28;20186;-82
2021/05/26 04:44:47;;;;;;;3.90;3.05;;;;;;;;;;5054928;28;20244;-82
2021/05/26 04:47:12;;;;;;;3.20;3.00;;;;;;;;;;5055562;28;20262;-82
2021/05/26 04:49:38;;;;;;;3.30;3.00;;;;;;;;;;5055246;28;20168;-82
2021/05/26 04:52:03;;;;;;;4.28;2.78;;;;;;;;;;5054692;28;20168;-82
2021/05/26 04:54:30;;;;;;;3.35;3.00;;;;;;;;;;5055300;28;20183;-82
2021/05/26 04:56:56;;;;;;;3.08;2.88;;;;;;;;;;5054919;28;20175;-83
2021/05/26 04:59:21;;;;;;;3.20;2.85;;;;;;;;;;5054534;28;20254;-83
2021/05/26 05:01:46;;;;;;;2.85;2.65;;;;;;;;;;5054727;28;20171;-82
2021/05/26 05:04:12;;;;;;;2.85;2.63;;;;;;;;;;5055089;28;20179;-83
2021/05/26 05:06:37;;;;;;;2.75;2.60;;;;;;;;;;5054806;28;20168;-83
2021/05/26 05:09:04;;;;;;;3.70;3.10;;;;;;;;;;5054562;28;20617;-83
2021/05/26 05:11:29;;;;;;;4.68;2.75;;;;;;;;;;5054780;28;20176;-83
2021/05/26 05:13:54;;;;;;;3.08;2.60;;;;;;;;;;5052348;28;20195;-84
2021/05/26 05:16:20;;;;;;;3.72;2.83;;;;;;;;;;5054794;28;20164;-83
2021/05/26 05:18:45;;;;;;;4.07;2.40;;;;;;;;;;5054379;28;20725;-83
2021/05/26 05:21:10;;;;;;;3.05;2.70;;;;;;;;;;5054418;28;20195;-83
2021/05/26 05:23:36;;;;;;;3.45;2.80;;;;;;;;;;5054989;28;20167;-83
2021/05/26 05:26:01;;;;;;;3.33;2.40;;;;;;;;;;5048069;28;20659;-83
2021/05/26 05:28:27;;;;;;;3.88;2.65;;;;;;;;;;5044001;28;20194;-84
2021/05/26 05:30:52;;;;;;;2.50;2.30;;;;;;;;;;5044183;28;20188;-84
2021/05/26 05:33:17;;;;;;;2.60;2.42;;;;;;;;;;5042753;28;20623;-84
2021/05/26 05:35:42;;;;;;;2.80;2.60;;;;;;;;;;5044423;28;20176;-84
2021/05/26 05:38:08;;;;;;;2.75;2.50;;;;;;;;;;5043851;28;20176;-84
2021/05/26 05:40:34;;;;;;;2.58;2.42;;;;;;;;;;5042573;28;20218;-84
2021/05/26 05:42:59;;;;;;;2.70;2.50;;;;;;;;;;5044500;28;20175;-84
2021/05/26 05:45:24;;;;;;;2.60;2.35;;;;;;;;;;5058252;28;20191;-84
2021/05/26 05:47:50;;;;;;;2.40;2.20;;;;;;;;;;5044019;28;20262;-85
2021/05/26 05:50:15;;;;;;;3.63;2.60;;;;;;;;;;5041997;28;20524;-84
2021/05/26 05:52:44;;;;;;;3.45;2.70;;;;;;;;;;5043679;28;20167;-85
2021/05/26 05:55:10;;;;;;;2.60;2.40;;;;;;;;;;5043855;28;20559;-84
2021/05/26 05:57:36;;;;;;;2.60;2.50;;;;;;;;;;5041883;28;20179;-84
2021/05/26 06:00:03;;;;;;;2.60;2.50;;;;;;;;;;5043761;28;20206;-84
2021/05/26 06:02:28;;;;;;;2.75;2.50;;;;;;;;;;5043431;28;20187;-84
2021/05/26 06:04:53;;;;;;;2.60;2.40;;;;;;;;;;5041838;28;20168;-84
2021/05/26 06:07:19;;;;;;;2.78;2.58;;;;;;;;;;5043824;28;20175;-84
2021/05/26 06:09:44;;;;;;;2.67;2.47;;;;;;;;;;5042678;28;20168;-84
2021/05/26 06:12:09;;;;;;;3.15;2.70;;;;;;;;;;5042672;28;20179;-84
2021/05/26 06:14:35;;;;;;;3.42;2.90;;;;;;;;;;5044044;28;20171;-84
2021/05/26 06:17:00;;;;;;;3.10;2.90;;;;;;;;;;5042037;28;20168;-83
2021/05/26 06:19:25;;;;;;;4.70;2.80;;;;;;;;;;5047765;28;20206;-84
2021/05/26 06:21:51;;;;;;;4.15;2.95;;;;;;;;;;5053923;28;20250;-84
2021/05/26 06:24:16;;;;;;;3.15;2.95;;;;;;;;;;5053779;28;20200;-84
2021/05/26 06:26:42;;;;;;;3.53;3.15;;;;;;;;;;5053797;28;20217;-84
2021/05/26 06:29:07;;;;;;;3.35;2.85;;;;;;;;;;5053462;28;20167;-84
2021/05/26 06:31:33;;;;;;;3.05;2.75;;;;;;;;;;5053078;28;20230;-85
2021/05/26 06:33:58;;;;;;;2.80;2.60;;;;;;;;;;5057615;28;20174;-86
2021/05/26 06:36:24;;;;;;;2.60;2.50;;;;;;;;;;5057342;28;20206;-87
2021/05/26 06:38:49;;;;;;;3.05;2.85;;;;;;;;;;5057506;28;20195;-84
2021/05/26 06:41:15;;;;;;;3.08;2.60;;;;;;;;;;5057824;28;20179;-85
2021/05/26 06:43:40;;;;;;;2.50;2.40;;;;;;;;;;5057576;28;20599;-84
2021/05/26 06:46:06;;;;;;;2.40;2.20;;;;;;;;;;5057606;28;20659;-84
2021/05/26 06:48:32;;;;;;;2.83;2.63;;;;;;;;;;5056510;28;20266;-85
2021/05/26 06:50:57;;;;;;;2.70;2.50;;;;;;;;;;5056051;28;20209;-85
2021/05/26 06:53:22;;;;;;;3.47;2.70;;;;;;;;;;5058135;28;20199;-83
2021/05/26 06:55:48;;;;;;;2.90;2.67;;;;;;;;;;5057745;28;20163;-83
2021/05/26 06:58:13;;;;;;;3.22;2.88;;;;;;;;;;5057441;28;20168;-83
2021/05/26 07:00:38;;;;;;;2.92;2.50;;;;;;;;;;5056695;28;20211;-84
2021/05/26 07:03:04;;;;;;;3.65;2.40;;;;;;;;;;5055437;28;20179;-84
2021/05/26 07:05:29;;;;;;;3.10;2.90;;;;;;;;;;5057074;28;20171;-83
2021/05/26 07:07:55;;;;;;;2.78;2.38;;;;;;;;;;5056887;28;20189;-84
2021/05/26 07:10:20;;;;;;;2.60;2.40;;;;;;;;;;5058243;28;20627;-85
2021/05/26 07:12:46;;;;;;;2.63;2.42;;;;;;;;;;5056744;28;20270;-84
2021/05/26 07:15:13;;;;;;;3.20;2.80;;;;;;;;;;5068737;28;20178;-85
2021/05/26 07:17:38;;;;;;;3.97;3.28;;;;;;;;;;5081550;28;20186;-85
2021/05/26 07:20:03;;;;;;;3.28;2.40;;;;;;;;;;5067310;28;20218;-83
2021/05/26 07:22:29;;;;;;;3.33;2.60;;;;;;;;;;5056304;28;20175;-85
2021/05/26 07:24:54;;;;;;;3.28;2.80;;;;;;;;;;5056807;28;20570;-85
2021/05/26 07:27:20;;;;;;;4.40;3.25;;;;;;;;;;5056466;28;20194;-84
2021/05/26 07:29:45;;;;;;;2.83;2.10;;;;;;;;;;5055954;28;20189;-84
2021/05/26 07:32:10;;;;;;;4.90;2.58;;;;;;;;;;5056245;28;20250;-84
2021/05/26 07:34:36;;;;;;;3.13;2.10;;;;;;;;;;5056679;28;20202;-85
2021/05/26 07:37:01;;;;;;;5.07;3.15;;;;;;;;;;5053315;28;20225;-85
2021/05/26 07:39:28;;;;;;;5.75;4.85;;;;;;;;;;5056149;28;20202;-84
2021/05/26 07:41:53;;;;;;;2.28;2.08;;;;;;;;;;5055822;28;20191;-85
2021/05/26 07:44:19;;;;;;;2.30;2.10;;;;;;;;;;5051623;28;20271;-85
2021/05/26 07:46:44;;;;;;;2.50;2.30;;;;;;;;;;5036006;28;20164;-85
2021/05/26 07:49:10;;;;;;;2.80;2.60;;;;;;;;;;5050030;28;20187;-86
2021/05/26 07:51:38;;;;;;;2.80;2.28;;;;;;;;;;5054270;28;20655;-86
2021/05/26 07:54:05;;;;;;;2.10;1.73;;;;;;;;;;5055668;28;20251;-85
2021/05/26 07:56:31;;;;;;;2.53;2.10;;;;;;;;;;5053508;28;20198;-85
2021/05/26 07:58:56;;;;;;;3.00;2.10;;;;;;;;;;5056041;28;20636;-85
2021/05/26 08:01:21;;;;;;;2.45;2.03;;;;;;;;;;5055564;28;20180;-86
2021/05/26 08:03:47;;;;;;;3.80;2.08;;;;;;;;;;5054325;28;20179;-85
2021/05/26 08:06:12;;;;;;;2.50;1.90;;;;;;;;;;5053755;28;20207;-84
2021/05/26 08:08:38;;;;;;;2.70;2.20;;;;;;;;;;5053856;28;20175;-84
2021/05/26 08:11:05;;;;;;;2.33;1.92;;;;;;;;;;5054952;28;20183;-84
2021/05/26 08:13:30;;;;;;;5.82;2.20;;;;;;;;;;5055443;28;20164;-84
2021/05/26 08:15:55;;;;;;;3.13;2.15;;;;;;;;;;5053872;28;20543;-84
2021/05/26 08:18:21;;;;;;;2.75;1.63;;;;;;;;;;5053029;28;20167;-84
2021/05/26 08:20:47;;;;;;;2.38;2.05;;;;;;;;;;5052403;28;20233;-85
2021/05/26 08:23:13;;;;;;;4.03;1.88;;;;;;;;;;5052119;28;20167;-85
2021/05/26 08:25:39;;;;;;;3.35;2.00;;;;;;;;;;5055323;28;20262;-84
2021/05/26 08:28:04;;;;;;;2.88;2.53;;;;;;;;;;5054976;28;20251;-84
2021/05/26 08:30:29;;;;;;;2.05;1.88;;;;;;;;;;5054771;28;20196;-84
2021/05/26 08:32:55;;;;;;;2.50;2.05;;;;;;;;;;5054025;28;20266;-84
2021/05/26 08:35:20;;;;;;;4.13;2.10;;;;;;;;;;5052933;28;20175;-83
2021/05/26 08:37:45;;;;;;;3.53;2.17;;;;;;;;;;5053323;28;20171;-84
2021/05/26 08:40:11;;;;;;;2.22;2.03;;;;;;;;;;5052939;28;20195;-83
2021/05/26 08:42:37;;;;;;;2.25;1.80;;;;;;;;;;5053093;28;20536;-84
2021/05/26 08:45:04;;;;;;;4.18;2.22;;;;;;;;;;5052682;28;20578;-84
2021/05/26 08:47:32;;;;;;;5.88;2.17;;;;;;;;;;5053288;28;20229;-83
2021/05/26 08:49:57;;;;;;;3.70;2.28;;;;;;;;;;5051615;28;20176;-84
2021/05/26 08:52:23;;;;;;;2.95;1.95;;;;;;;;;;5052700;28;20171;-84
2021/05/26 08:54:48;;;;;;;2.40;2.20;;;;;;;;;;5053358;28;20171;-83
2021/05/26 08:57:14;;;;;;;2.33;2.03;;;;;;;;;;5053361;28;20178;-83
2021/05/26 08:59:39;;;;;;;6.68;2.35;;;;;;;;;;5054489;28;20683;-84
2021/05/26 09:02:06;;;;;;;2.55;2.15;;;;;;;;;;5054291;28;20255;-88
2021/05/26 09:04:32;;;;;;;2.75;2.38;;;;;;;;;;5054221;28;20176;-86
2021/05/26 09:07:09;;;;;;;2.40;2.20;;;;;;;;;;5053636;28;20250;-86
2021/05/26 09:09:46;;;;;;;3.17;2.10;;;;;;;;;;5053791;28;20181;-87
2021/05/26 09:12:12;;;;;;;2.43;2.23;;;;;;;;;;5054259;28;20235;-87
2021/05/26 09:14:37;;;;;;;3.00;2.20;;;;;;;;;;5054661;28;20172;-87
2021/05/26 09:17:10;;;;;;;4.30;2.20;;;;;;;;;;5054287;28;20215;-88
2021/05/26 09:19:35;;;;;;;2.63;2.30;;;;;;;;;;5051795;28;20212;-85
2021/05/26 09:22:08;;;;;;;4.33;2.13;;;;;;;;;;5045948;28;20249;-85
2021/05/26 09:24:34;;;;;;;4.17;2.40;;;;;;;;;;5042142;28;20164;-85
2021/05/26 09:27:07;;;;;;;3.63;2.57;;;;;;;;;;5054178;28;20168;-84
2021/05/26 09:29:37;;;;;;;3.63;3.00;;;;;;;;;;5039866;28;20264;-85
2021/05/26 09:32:11;;;;;;;2.83;2.47;;;;;;;;;;5033487;28;20240;-85
2021/05/26 09:34:44;;;;;;;2.73;2.27;;;;;;;;;;5034099;28;20182;-85
2021/05/26 09:37:16;;;;;;;4.53;2.10;;;;;;;;;;5039844;28;20250;-84
2021/05/26 09:39:51;;;;;;;3.77;2.20;;;;;;;;;;5053904;28;20187;-85
2021/05/26 09:42:20;;;;;;;3.33;2.27;;;;;;;;;;5053548;28;20532;-85
2021/05/26 09:45:24;;;;;;;4.60;2.70;;;;;;;;;;5053506;28;20679;-85
2021/05/26 09:47:53;;;;;;;13.03;4.93;;;;;;;;;;5031448;28;20633;-85
2021/05/26 09:50:20;;;;;;;3.47;2.33;;;;;;;;;;5048680;28;20392;-85
2021/05/26 09:52:51;;;;;;;3.23;2.23;;;;;;;;;;5053754;28;20176;-85
2021/05/26 09:55:18;;;;;;;3.50;2.60;;;;;;;;;;5041666;28;20267;-84
2021/05/26 09:57:48;;;;;;;2.47;2.20;;;;;;;;;;5033403;28;20536;-84
2021/05/26 10:00:14;;;;;;;4.47;2.03;;;;;;;;;;5033613;28;20695;-85
2021/05/26 10:02:39;;;;;;;2.20;2.00;;;;;;;;;;5033072;28;20176;-84
2021/05/26 10:05:05;;;;;;;6.57;2.37;;;;;;;;;;5031581;28;20227;-85
2021/05/26 10:07:30;;;;;;;3.30;1.90;;;;;;;;;;5039882;28;20542;-85
2021/05/26 10:09:55;;;;;;;2.90;2.13;;;;;;;;;;5051848;28;20179;-85
2021/05/26 10:12:21;;;;;;;2.40;2.20;;;;;;;;;;5034390;28;20191;-84
2021/05/26 10:14:47;;;;;;;3.80;2.13;;;;;;;;;;5031842;28;20906;-85
2021/05/26 10:17:19;;;;;;;2.77;2.30;;;;;;;;;;5031890;28;20176;-85
2021/05/26 10:19:44;;;;;;;3.53;2.07;;;;;;;;;;5032115;28;20192;-85
2021/05/26 10:22:10;;;;;;;3.87;1.93;;;;;;;;;;5048377;28;20188;-86
2021/05/26 10:24:35;;;;;;;2.10;1.90;;;;;;;;;;5052609;28;20337;-86
2021/05/26 10:27:01;;;;;;;3.70;1.93;;;;;;;;;;5051698;28;20167;-86
2021/05/26 10:29:29;;;;;;;2.30;1.90;;;;;;;;;;5048767;28;20192;-86
2021/05/26 10:31:55;;;;;;;5.03;2.13;;;;;;;;;;5053278;28;20744;-86
2021/05/26 10:34:20;;;;;;;2.47;2.00;;;;;;;;;;5053563;28;20262;-86
2021/05/26 10:36:51;;;;;;;3.67;1.97;;;;;;;;;;5053017;28;20176;-86
2021/05/26 10:39:29;;;;;;;3.33;1.70;;;;;;;;;;5052942;28;20249;-86
2021/05/26 10:41:55;;;;;;;3.07;2.00;;;;;;;;;;5053041;28;20182;-86
2021/05/26 10:44:20;;;;;;;2.07;1.97;;;;;;;;;;5053431;28;20616;-88
2021/05/26 10:46:48;;;;;;;4.27;2.30;;;;;;;;;;5053572;28;20180;-88
2021/05/26 10:49:15;;;;;;;3.03;1.80;;;;;;;;;;5053250;28;20207;-88
2021/05/26 10:51:53;;;;;;;2.80;1.60;;;;;;;;;;5053110;28;20523;-87
2021/05/26 10:54:37;;;;;;;2.40;2.20;;;;;;;;;;5052164;28;20178;-87
2021/05/26 10:57:03;;;;;;;2.55;1.90;;;;;;;;;;5053086;28;20680;-87
2021/05/26 10:59:30;;;;;;;1.93;1.80;;;;;;;;;;5068022;28;20203;-87
2021/05/26 11:02:02;;;;;;;2.10;1.90;;;;;;;;;;5049648;28;20199;-87
2021/05/26 11:04:27;;;;;;;3.57;1.90;;;;;;;;;;5051565;28;20515;-87
2021/05/26 11:07:12;;;;;;;1.90;1.80;;;;;;;;;;5051116;28;20175;-87
2021/05/26 11:09:54;;;;;;;2.00;1.90;;;;;;;;;;5050749;28;20188;-87
2021/05/26 11:12:20;;;;;;;2.40;2.20;;;;;;;;;;5066413;28;20270;-87
2021/05/26 11:14:48;;;;;;;2.87;2.07;;;;;;;;;;5051149;28;20259;-87
2021/05/26 11:17:15;;;;;;;3.33;2.13;;;;;;;;;;5049645;28;20190;-87
2021/05/26 11:19:41;;;;;;;3.03;1.97;;;;;;;;;;5055314;28;20195;-87
2021/05/26 11:22:11;;;;;;;4.03;1.77;;;;;;;;;;5056627;28;20628;-88
2021/05/26 11:24:41;;;;;;;4.20;1.80;;;;;;;;;;5055466;28;20508;-87
2021/05/26 11:27:17;;;;;;;4.18;2.05;;;;;;;;;;5056545;28;20191;-88
2021/05/26 11:29:43;;;;;;;3.57;1.90;;;;;;;;;;5056405;28;20215;-87
2021/05/26 11:32:13;;;;;;;2.53;1.50;;;;;;;;;;5056286;28;20667;-87
2021/05/26 11:34:40;;;;;;;2.33;1.87;;;;;;;;;;5056331;28;20172;-87
2021/05/26 11:37:05;;;;;;;2.00;1.80;;;;;;;;;;5056285;28;20378;-87
2021/05/26 11:39:33;;;;;;;2.60;1.83;;;;;;;;;;5055836;28;20656;-87
2021/05/26 11:42:14;;;;;;;3.33;2.22;;;;;;;;;;5056382;28;20620;-86
2021/05/26 11:44:41;;;;;;;2.53;2.03;;;;;;;;;;5056069;28;20167;-87
2021/05/26 11:47:07;;;;;;;2.97;1.70;;;;;;;;;;5055733;28;20587;-87
2021/05/26 11:49:33;;;;;;;3.45;2.15;;;;;;;;;;5055999;28;20208;-87
2021/05/26 11:52:03;;;;;;;1.50;1.48;;;;;;;;;;5054745;28;20180;-86
2021/05/26 11:54:28;;;;;;;4.18;2.10;;;;;;;;;;5056110;28;20180;-86
2021/05/26 11:57:04;;;;;;;3.60;1.73;;;;;;;;;;5054872;28;20179;-87
2021/05/26 11:59:30;;;;;;;3.47;2.00;;;;;;;;;;5055792;28;20666;-87
2021/05/26 12:01:56;;;;;;;3.42;1.90;;;;;;;;;;5055738;28;20180;-86
2021/05/26 12:04:21;;;;;;;3.47;2.63;;;;;;;;;;5054365;28;20187;-87
2021/05/26 12:06:47;;;;;;;2.63;2.13;;;;;;;;;;5055713;28;20180;-87
2021/05/26 12:09:25;;;;;;;3.47;1.80;;;;;;;;;;5055654;28;20263;-86
2021/05/26 12:11:50;;;;;;;2.33;1.80;;;;;;;;;;5053605;28;20286;-87
2021/05/26 12:14:30;;;;;;;2.45;1.85;;;;;;;;;;5052704;28;20262;-86
2021/05/26 12:16:58;;;;;;;3.13;1.60;;;;;;;;;;5055280;28;20176;-86
2021/05/26 12:19:30;;;;;;;2.50;1.90;;;;;;;;;;5055574;28;20195;-86
2021/05/26 12:22:08;;;;;;;2.65;2.20;;;;;;;;;;5048614;28;20192;-86
2021/05/26 12:24:49;;;;;;;6.95;2.33;;;;;;;;;;5049826;28;20179;-86
2021/05/26 12:27:28;;;;;;;3.77;2.27;;;;;;;;;;5036076;28;20172;-86
2021/05/26 12:29:53;;;;;;;2.58;1.77;;;;;;;;;;5039853;28;20163;-86
2021/05/26 12:32:25;;;;;;;2.28;1.60;;;;;;;;;;5054774;28;20224;-86
2021/05/26 12:34:57;;;;;;;1.93;1.73;;;;;;;;;;5055156;28;20262;-86
2021/05/26 12:37:43;;;;;;;2.50;1.90;;;;;;;;;;5055071;28;20164;-86
2021/05/26 12:40:09;;;;;;;2.13;1.90;;;;;;;;;;5034988;28;20204;-86
2021/05/26 12:42:38;;;;;;;1.83;1.73;;;;;;;;;;5038282;28;20533;-86
2021/05/26 12:45:22;;;;;;;2.70;1.93;;;;;;;;;;5051116;28;20258;-86
2021/05/26 12:47:50;;;;;;;1.73;1.63;;;;;;;;;;5034914;28;20175;-86
2021/05/26 12:50:16;;;;;;;1.52;1.42;;;;;;;;;;5041331;28;20243;-86
2021/05/26 12:52:42;;;;;;;2.25;1.45;;;;;;;;;;5054684;28;20167;-85
2021/05/26 12:55:11;;;;;;;4.50;2.05;;;;;;;;;;5051479;28;20180;-85
2021/05/26 12:57:43;;;;;;;2.03;1.83;;;;;;;;;;5032989;28;20305;-87
2021/05/26 13:00:10;;;;;;;4.78;2.00;;;;;;;;;;5051626;28;20203;-87
2021/05/26 13:02:37;;;;;;;3.95;2.08;;;;;;;;;;5052494;28;20180;-87
2021/05/26 13:05:03;;;;;;;2.67;2.20;;;;;;;;;;5051324;28;20232;-87
2021/05/26 13:07:45;;;;;;;1.60;1.50;;;;;;;;;;5052804;28;20267;-88
2021/05/26 13:10:18;;;;;;;2.10;1.80;;;;;;;;;;5051265;28;20190;-85
2021/05/26 13:12:45;;;;;;;5.05;2.28;;;;;;;;;;5052612;28;20625;-85
2021/05/26 13:15:36;;;;;;;3.28;2.05;;;;;;;;;;5052427;28;20168;-85
2021/05/26 13:18:03;;;;;;;2.00;1.80;;;;;;;;;;5034391;28;20161;-86
2021/05/26 13:20:28;;;;;;;2.30;2.10;;;;;;;;;;5033248;28;20196;-85
2021/05/26 13:22:55;;;;;;;2.00;1.60;;;;;;;;;;5033628;28;20729;-84
2021/05/26 13:25:21;;;;;;;2.63;1.97;;;;;;;;;;5050508;28;20175;-89
2021/05/26 13:27:51;;;;;;;1.63;1.35;;;;;;;;;;5051380;28;20191;-87
2021/05/26 13:30:16;;;;;;;3.67;2.15;;;;;;;;;;5054126;28;20669;-87
2021/05/26 13:32:42;;;;;;;2.20;1.95;;;;;;;;;;5045448;28;20235;-85
2021/05/26 13:35:08;;;;;;;2.33;2.10;;;;;;;;;;5053464;28;20179;-85
2021/05/26 13:37:33;;;;;;;3.63;3.17;;;;;;;;;;5073433;28;20183;-84
2021/05/26 13:39:58;;;;;;;3.22;2.92;;;;;;;;;;5073644;28;20183;-84
2021/05/26 13:42:23;;;;;;;2.63;2.00;;;;;;;;;;5067001;28;20711;-86
2021/05/26 13:44:49;;;;;;;2.20;1.98;;;;;;;;;;5059865;28;20168;-85
2021/05/26 13:47:14;;;;;;;2.20;1.92;;;;;;;;;;5060429;28;20262;-85
2021/05/26 13:49:39;;;;;;;2.88;2.13;;;;;;;;;;5053063;28;20177;-85
2021/05/26 13:52:05;;;;;;;2.10;1.80;;;;;;;;;;5042117;28;20754;-86
2021/05/26 13:54:30;;;;;;;2.38;1.80;;;;;;;;;;5051733;28;20176;-86
2021/05/26 13:56:56;;;;;;;3.72;2.25;;;;;;;;;;5049017;28;20180;-86
2021/05/26 13:59:22;;;;;;;4.45;2.15;;;;;;;;;;5049522;28;20260;-86
2021/05/26 14:01:47;;;;;;;4.35;2.08;;;;;;;;;;5049088;28;20262;-86
2021/05/26 14:04:12;;;;;;;2.10;1.65;;;;;;;;;;5053241;28;20260;-85
2021/05/26 14:06:40;;;;;;;2.57;2.07;;;;;;;;;;5052070;28;20172;-85
2021/05/26 14:09:06;;;;;;;3.97;2.13;;;;;;;;;;5050329;28;20187;-86
2021/05/26 14:11:31;;;;;;;3.08;2.20;;;;;;;;;;5049046;28;20528;-86
2021/05/26 14:13:56;;;;;;;2.90;1.90;;;;;;;;;;5053566;28;20520;-86
2021/05/26 14:16:22;;;;;;;2.17;1.97;;;;;;;;;;5053338;28;20627;-86
2021/05/26 14:18:47;;;;;;;2.10;2.00;;;;;;;;;;5035548;28;20184;-85
2021/05/26 14:21:12;;;;;;;3.90;2.47;;;;;;;;;;5042268;28;20191;-85
2021/05/26 14:23:38;;;;;;;2.90;2.60;;;;;;;;;;5039044;28;20180;-85
2021/05/26 14:26:03;;;;;;;3.97;2.00;;;;;;;;;;5052570;28;20178;-85
2021/05/26 14:28:28;;;;;;;2.27;1.70;;;;;;;;;;5053100;28;20168;-85
2021/05/26 14:30:54;;;;;;;3.47;2.10;;;;;;;;;;5042166;28;20213;-85
2021/05/26 14:33:20;;;;;;;3.80;1.90;;;;;;;;;;5049653;28;20179;-85
2021/05/26 14:35:45;;;;;;;2.87;2.43;;;;;;;;;;5051606;28;20179;-85
2021/05/26 14:38:29;;;;;;;2.97;2.00;;;;;;;;;;5053107;28;20640;-84
2021/05/26 14:40:54;;;;;;;1.60;1.50;;;;;;;;;;5052592;28;20234;-85
2021/05/26 14:43:20;;;;;;;3.90;1.80;;;;;;;;;;5033025;28;20180;-85